Time;durP1;ratioP1;P1;durP2;ratioP2;P2;SDS_P1;SDS_P2;PMS_P1;PMS_P2;Temp;Humidity;BMP_temperature;BMP_pressure;BME280_temperature;BME280_humidity;BME280_pressure;Samples;Min_cycle;Max_cycle;Signal;HPM_P1;HPM_P2
2023/09/15 00:02:12;;;;;;;14.45;12.95;;;;;;;;;;5037022;28;20447;-87
2023/09/15 00:04:39;;;;;;;16.40;14.43;;;;;;;;;;5036466;28;20049;-87
2023/09/15 00:07:08;;;;;;;13.50;12.15;;;;;;;;;;5035993;28;20488;-87
2023/09/15 00:09:35;;;;;;;14.45;12.20;;;;;;;;;;5035955;28;20048;-87
2023/09/15 00:12:02;;;;;;;14.13;12.18;;;;;;;;;;5028243;28;20049;-87
2023/09/15 00:14:30;;;;;;;16.40;12.20;;;;;;;;;;5036152;28;20045;-87
2023/09/15 00:16:57;;;;;;;15.60;12.43;;;;;;;;;;5053204;28;20088;-87
2023/09/15 00:19:24;;;;;;;13.10;11.35;;;;;;;;;;5035534;28;20048;-87
2023/09/15 00:21:52;;;;;;;13.82;11.57;;;;;;;;;;5035839;28;20103;-87
2023/09/15 00:24:19;;;;;;;13.05;11.43;;;;;;;;;;5053524;28;20040;-87
2023/09/15 00:26:48;;;;;;;12.82;11.63;;;;;;;;;;5035721;28;20051;-87
2023/09/15 00:29:15;;;;;;;11.85;10.75;;;;;;;;;;5053069;28;20056;-87
2023/09/15 00:31:43;;;;;;;12.30;10.93;;;;;;;;;;5044905;28;20083;-87
2023/09/15 00:34:14;;;;;;;11.85;10.77;;;;;;;;;;5035810;28;20069;-87
2023/09/15 00:36:45;;;;;;;12.13;10.93;;;;;;;;;;5036068;28;20072;-87
2023/09/15 00:39:13;;;;;;;11.82;10.40;;;;;;;;;;5035468;28;20049;-87
2023/09/15 00:41:40;;;;;;;12.27;11.07;;;;;;;;;;5053465;28;20485;-87
2023/09/15 00:44:07;;;;;;;12.57;11.27;;;;;;;;;;5057127;28;20084;-88
2023/09/15 00:46:34;;;;;;;12.32;11.02;;;;;;;;;;5057799;28;20118;-87
2023/09/15 00:49:03;;;;;;;13.23;11.82;;;;;;;;;;5057379;28;20049;-86
2023/09/15 00:51:30;;;;;;;12.73;11.52;;;;;;;;;;5057602;28;20485;-86
2023/09/15 00:53:58;;;;;;;12.73;11.40;;;;;;;;;;5057219;28;20052;-86
2023/09/15 00:56:25;;;;;;;13.15;11.55;;;;;;;;;;5040180;28;20049;-86
2023/09/15 00:58:53;;;;;;;13.00;11.20;;;;;;;;;;5052817;28;20044;-87
2023/09/15 01:01:21;;;;;;;14.18;12.57;;;;;;;;;;5066426;28;20106;-87
2023/09/15 01:03:48;;;;;;;16.30;13.55;;;;;;;;;;5039250;28;20059;-87
2023/09/15 01:06:16;;;;;;;14.75;12.15;;;;;;;;;;5039531;28;20051;-86
2023/09/15 01:08:44;;;;;;;15.50;13.43;;;;;;;;;;5049071;28;20053;-87
2023/09/15 01:11:12;;;;;;;15.30;13.60;;;;;;;;;;5055243;28;20128;-87
2023/09/15 01:13:39;;;;;;;15.93;13.13;;;;;;;;;;5056787;28;20448;-86
2023/09/15 01:16:16;;;;;;;14.38;12.45;;;;;;;;;;5031045;28;20083;-86
2023/09/15 01:18:49;;;;;;;16.60;13.43;;;;;;;;;;5039049;28;20052;-86
2023/09/15 01:21:28;;;;;;;15.27;13.57;;;;;;;;;;5039434;28;20045;-87
2023/09/15 01:24:08;;;;;;;16.63;14.43;;;;;;;;;;5024707;28;20095;-86
2023/09/15 01:26:46;;;;;;;15.43;13.27;;;;;;;;;;5055964;28;20346;-87
2023/09/15 01:29:32;;;;;;;15.32;13.63;;;;;;;;;;5038329;28;20045;-87
2023/09/15 01:32:01;;;;;;;18.85;14.90;;;;;;;;;;5032967;28;20474;-87
2023/09/15 01:34:29;;;;;;;14.90;13.32;;;;;;;;;;5038869;28;20079;-88
2023/09/15 01:36:57;;;;;;;15.38;13.23;;;;;;;;;;5038592;28;20527;-87
2023/09/15 01:39:30;;;;;;;16.13;13.60;;;;;;;;;;5056036;28;20084;-87
2023/09/15 01:41:59;;;;;;;14.02;12.52;;;;;;;;;;5056013;28;20417;-86
2023/09/15 01:44:30;;;;;;;13.55;12.23;;;;;;;;;;5030316;28;20051;-86
2023/09/15 01:46:57;;;;;;;15.32;13.35;;;;;;;;;;5038714;28;20095;-86
2023/09/15 01:49:25;;;;;;;15.43;13.35;;;;;;;;;;5038620;28;20052;-86
2023/09/15 01:51:53;;;;;;;15.77;12.57;;;;;;;;;;5056012;28;20052;-86
2023/09/15 01:54:21;;;;;;;15.15;12.68;;;;;;;;;;5055168;28;20483;-86
2023/09/15 01:56:49;;;;;;;16.30;13.32;;;;;;;;;;5055969;28;20055;-86
2023/09/15 01:59:16;;;;;;;14.93;13.20;;;;;;;;;;5038085;28;20142;-86
2023/09/15 02:01:43;;;;;;;14.27;12.55;;;;;;;;;;5030278;28;20053;-86
2023/09/15 02:04:11;;;;;;;14.65;13.25;;;;;;;;;;5055599;28;20047;-86
2023/09/15 02:06:38;;;;;;;14.75;13.25;;;;;;;;;;5055169;28;20052;-86
2023/09/15 02:09:06;;;;;;;14.05;12.55;;;;;;;;;;5037772;28;20085;-87
2023/09/15 02:11:33;;;;;;;15.60;13.32;;;;;;;;;;5037652;28;20064;-87
2023/09/15 02:14:00;;;;;;;13.55;12.10;;;;;;;;;;5038559;28;20102;-86
2023/09/15 02:16:28;;;;;;;18.08;13.98;;;;;;;;;;5056041;28;20044;-87
2023/09/15 02:18:55;;;;;;;16.05;13.52;;;;;;;;;;5058731;28;20468;-86
2023/09/15 02:21:23;;;;;;;16.02;13.88;;;;;;;;;;5055060;28;20056;-86
2023/09/15 02:23:50;;;;;;;15.68;13.73;;;;;;;;;;5055057;28;20068;-87
2023/09/15 02:26:17;;;;;;;16.67;13.68;;;;;;;;;;5037270;28;20103;-87
2023/09/15 02:28:45;;;;;;;19.48;13.32;;;;;;;;;;5055008;28;20651;-86
2023/09/15 02:31:16;;;;;;;16.10;13.75;;;;;;;;;;5014200;28;20048;-86
2023/09/15 02:33:45;;;;;;;15.63;13.20;;;;;;;;;;5037391;28;20059;-86
2023/09/15 02:36:12;;;;;;;20.27;12.80;;;;;;;;;;5054837;28;20588;-87
2023/09/15 02:38:39;;;;;;;15.35;12.65;;;;;;;;;;5036922;28;20489;-87
2023/09/15 02:41:07;;;;;;;17.17;13.20;;;;;;;;;;5054804;28;20433;-87
2023/09/15 02:43:34;;;;;;;13.43;12.07;;;;;;;;;;5054544;28;20045;-87
2023/09/15 02:46:05;;;;;;;12.55;11.27;;;;;;;;;;5036970;28;20049;-86
2023/09/15 02:48:32;;;;;;;14.80;12.23;;;;;;;;;;5054501;28;20513;-87
2023/09/15 02:51:00;;;;;;;13.57;11.95;;;;;;;;;;5054353;28;20578;-86
2023/09/15 02:53:27;;;;;;;12.60;11.40;;;;;;;;;;5037009;28;20052;-87
2023/09/15 02:56:03;;;;;;;12.40;11.07;;;;;;;;;;5037076;28;20461;-87
2023/09/15 02:58:30;;;;;;;12.75;11.52;;;;;;;;;;5036932;28;20045;-85
2023/09/15 03:00:58;;;;;;;16.52;12.63;;;;;;;;;;5036811;28;20041;-86
2023/09/15 03:03:26;;;;;;;17.00;12.75;;;;;;;;;;5036843;28;20088;-86
2023/09/15 03:06:03;;;;;;;17.85;13.70;;;;;;;;;;5035855;28;20047;-86
2023/09/15 03:08:31;;;;;;;13.20;11.90;;;;;;;;;;5054500;28;20057;-87
2023/09/15 03:10:58;;;;;;;14.82;13.13;;;;;;;;;;5036502;28;20501;-86
2023/09/15 03:13:25;;;;;;;14.02;12.60;;;;;;;;;;5036694;28;20493;-86
2023/09/15 03:15:53;;;;;;;16.48;13.55;;;;;;;;;;5036746;28;20096;-86
2023/09/15 03:18:20;;;;;;;17.50;13.93;;;;;;;;;;5036637;28;20072;-87
2023/09/15 03:20:47;;;;;;;15.60;13.60;;;;;;;;;;5036443;28;20057;-86
2023/09/15 03:23:15;;;;;;;16.63;13.68;;;;;;;;;;5036704;28;20053;-86
2023/09/15 03:25:42;;;;;;;17.05;14.63;;;;;;;;;;5037092;28;20049;-86
2023/09/15 03:28:10;;;;;;;15.63;13.80;;;;;;;;;;5036441;28;20397;-86
2023/09/15 03:30:38;;;;;;;18.65;14.95;;;;;;;;;;5036528;28;20044;-86
2023/09/15 03:33:07;;;;;;;19.67;15.55;;;;;;;;;;5041253;28;20568;-86
2023/09/15 03:35:35;;;;;;;14.63;13.13;;;;;;;;;;5037505;28;20045;-86
2023/09/15 03:38:02;;;;;;;18.63;15.13;;;;;;;;;;5035965;28;20061;-86
2023/09/15 03:40:30;;;;;;;22.83;14.13;;;;;;;;;;5036012;28;20049;-86
2023/09/15 03:42:57;;;;;;;17.50;13.68;;;;;;;;;;5035966;28;20493;-86
2023/09/15 03:45:25;;;;;;;19.55;15.00;;;;;;;;;;5036028;28;20107;-87
2023/09/15 03:47:52;;;;;;;15.77;14.05;;;;;;;;;;5036027;28;20053;-87
2023/09/15 03:50:21;;;;;;;18.25;14.77;;;;;;;;;;5032952;28;20131;-86
2023/09/15 03:52:48;;;;;;;16.65;14.00;;;;;;;;;;5036142;28;20060;-87
2023/09/15 03:55:17;;;;;;;17.15;14.45;;;;;;;;;;5053487;28;20091;-86
2023/09/15 03:57:44;;;;;;;17.48;13.25;;;;;;;;;;5045543;28;20048;-87
2023/09/15 04:00:17;;;;;;;15.48;12.30;;;;;;;;;;5036032;28;20103;-87
2023/09/15 04:02:44;;;;;;;19.52;13.25;;;;;;;;;;5045701;28;20052;-87
2023/09/15 04:05:12;;;;;;;15.82;12.32;;;;;;;;;;5036109;28;20049;-87
2023/09/15 04:07:40;;;;;;;13.13;11.68;;;;;;;;;;5035638;28;20574;-87
2023/09/15 04:10:10;;;;;;;15.35;12.10;;;;;;;;;;5036057;28;20052;-87
2023/09/15 04:12:37;;;;;;;13.70;12.20;;;;;;;;;;5053568;28;20053;-87
2023/09/15 04:15:05;;;;;;;13.68;11.02;;;;;;;;;;5035845;28;20048;-86
2023/09/15 04:17:32;;;;;;;16.00;12.55;;;;;;;;;;5035538;28;20106;-86
2023/09/15 04:20:00;;;;;;;15.05;13.05;;;;;;;;;;5052919;28;20132;-86
2023/09/15 04:22:27;;;;;;;17.10;14.02;;;;;;;;;;5035500;28;20076;-86
2023/09/15 04:24:55;;;;;;;16.08;13.65;;;;;;;;;;5035323;28;20072;-86
2023/09/15 04:27:22;;;;;;;17.65;13.50;;;;;;;;;;5035332;28;20055;-87
2023/09/15 04:29:56;;;;;;;16.83;13.82;;;;;;;;;;5053312;28;20083;-87
2023/09/15 04:32:23;;;;;;;15.75;12.77;;;;;;;;;;5035319;28;20114;-87
2023/09/15 04:34:51;;;;;;;14.68;12.93;;;;;;;;;;5035522;28;20077;-86
2023/09/15 04:37:19;;;;;;;18.30;13.85;;;;;;;;;;5035001;28;20052;-86
2023/09/15 04:39:47;;;;;;;17.42;14.25;;;;;;;;;;5035130;28;20059;-86
2023/09/15 04:42:14;;;;;;;20.58;14.98;;;;;;;;;;5035251;28;20128;-87
2023/09/15 04:44:41;;;;;;;18.10;14.88;;;;;;;;;;5053039;28;20482;-86
2023/09/15 04:47:11;;;;;;;18.55;15.02;;;;;;;;;;5035451;28;20049;-87
2023/09/15 04:49:38;;;;;;;18.52;14.77;;;;;;;;;;5047535;28;20048;-87
2023/09/15 04:52:06;;;;;;;17.38;14.40;;;;;;;;;;5043689;28;20159;-86
2023/09/15 04:54:33;;;;;;;16.77;14.55;;;;;;;;;;5035064;28;20052;-86
2023/09/15 04:57:00;;;;;;;21.77;16.25;;;;;;;;;;5035202;28;20076;-86
2023/09/15 04:59:28;;;;;;;23.45;15.63;;;;;;;;;;5034996;28;20114;-86
2023/09/15 05:01:55;;;;;;;20.48;16.08;;;;;;;;;;5035042;28;20539;-87
2023/09/15 05:04:23;;;;;;;21.05;15.73;;;;;;;;;;5052668;28;20048;-86
2023/09/15 05:06:51;;;;;;;14.82;12.82;;;;;;;;;;5052590;28;20551;-86
2023/09/15 05:09:20;;;;;;;19.75;15.98;;;;;;;;;;5034763;28;20052;-86
2023/09/15 05:11:47;;;;;;;19.60;15.23;;;;;;;;;;5044734;28;20098;-86
2023/09/15 05:14:15;;;;;;;22.00;15.32;;;;;;;;;;5034829;28;20053;-87
2023/09/15 05:16:42;;;;;;;20.35;15.43;;;;;;;;;;5034915;28;20045;-86
2023/09/15 05:19:10;;;;;;;20.38;16.33;;;;;;;;;;5052351;28;20049;-86
2023/09/15 05:21:37;;;;;;;25.63;19.00;;;;;;;;;;5052862;28;20057;-87
2023/09/15 05:24:04;;;;;;;26.83;20.52;;;;;;;;;;5034958;28;20052;-87
2023/09/15 05:26:32;;;;;;;26.08;17.77;;;;;;;;;;5034809;28;20049;-87
2023/09/15 05:28:59;;;;;;;33.90;18.65;;;;;;;;;;5054701;28;20417;-87
2023/09/15 05:31:26;;;;;;;34.83;19.85;;;;;;;;;;5038608;28;20049;-86
2023/09/15 05:33:55;;;;;;;42.17;20.80;;;;;;;;;;5038638;28;20049;-87
2023/09/15 05:36:22;;;;;;;37.90;19.27;;;;;;;;;;5055692;28;20041;-87
2023/09/15 05:38:50;;;;;;;23.88;15.73;;;;;;;;;;5038514;28;20061;-88
2023/09/15 05:41:17;;;;;;;17.90;13.93;;;;;;;;;;5038642;28;20049;-87
2023/09/15 05:43:44;;;;;;;19.20;13.63;;;;;;;;;;5056048;28;20049;-87
2023/09/15 05:46:12;;;;;;;14.05;12.55;;;;;;;;;;5038347;28;20091;-87
2023/09/15 05:48:39;;;;;;;17.65;12.82;;;;;;;;;;5030182;28;20386;-86
2023/09/15 05:51:06;;;;;;;16.95;11.98;;;;;;;;;;5038326;28;20080;-86
2023/09/15 05:53:34;;;;;;;21.10;12.73;;;;;;;;;;5056047;28;20053;-87
2023/09/15 05:56:02;;;;;;;15.13;12.77;;;;;;;;;;5055808;28;20103;-87
2023/09/15 05:58:29;;;;;;;16.52;13.95;;;;;;;;;;5035776;28;20099;-86
2023/09/15 06:00:57;;;;;;;23.75;14.90;;;;;;;;;;5049037;28;20503;-86
2023/09/15 06:03:25;;;;;;;29.77;18.63;;;;;;;;;;5030065;28;20123;-87
2023/09/15 06:05:53;;;;;;;26.83;18.27;;;;;;;;;;5039461;28;20493;-86
2023/09/15 06:08:20;;;;;;;29.05;17.40;;;;;;;;;;5059757;28;20107;-86
2023/09/15 06:10:48;;;;;;;22.15;17.13;;;;;;;;;;5027057;28;20099;-87
2023/09/15 06:13:15;;;;;;;40.30;17.88;;;;;;;;;;5047603;28;20083;-87
2023/09/15 06:15:43;;;;;;;21.27;13.85;;;;;;;;;;5052641;28;20102;-87
2023/09/15 06:18:10;;;;;;;15.77;12.00;;;;;;;;;;5034897;28;20128;-88
2023/09/15 06:20:38;;;;;;;22.85;11.75;;;;;;;;;;5039259;28;20128;-88
2023/09/15 06:23:05;;;;;;;22.42;13.70;;;;;;;;;;5041771;28;20508;-87
2023/09/15 06:25:33;;;;;;;18.10;12.25;;;;;;;;;;5056322;28;20052;-87
2023/09/15 06:28:00;;;;;;;27.30;13.30;;;;;;;;;;5058431;28;20052;-88
2023/09/15 06:30:47;;;;;;;25.63;12.70;;;;;;;;;;5028023;28;20053;-87
2023/09/15 06:33:14;;;;;;;30.70;13.57;;;;;;;;;;5042880;28;20053;-87
2023/09/15 06:35:42;;;;;;;27.80;12.07;;;;;;;;;;5041442;28;20057;-88
2023/09/15 06:38:10;;;;;;;32.05;13.13;;;;;;;;;;5042004;28;20060;-88
2023/09/15 06:40:38;;;;;;;32.78;13.52;;;;;;;;;;5057550;28;20060;-88
2023/09/15 06:43:07;;;;;;;29.35;11.95;;;;;;;;;;5043343;28;20045;-88
2023/09/15 06:45:35;;;;;;;32.33;12.52;;;;;;;;;;5044069;28;20131;-89
2023/09/15 06:48:02;;;;;;;23.50;11.40;;;;;;;;;;5042496;28;20076;-88
2023/09/15 06:50:30;;;;;;;35.53;11.80;;;;;;;;;;5039100;28;20052;-87
2023/09/15 06:52:57;;;;;;;24.90;11.10;;;;;;;;;;5037553;28;20055;-89
2023/09/15 06:55:25;;;;;;;20.17;10.45;;;;;;;;;;5054557;28;20102;-88
2023/09/15 06:57:52;;;;;;;22.40;8.85;;;;;;;;;;5030522;28;20519;-88
2023/09/15 07:00:21;;;;;;;33.35;9.60;;;;;;;;;;5042583;28;20048;-87
2023/09/15 07:02:48;;;;;;;25.52;9.07;;;;;;;;;;5037458;28;20041;-88
2023/09/15 07:05:16;;;;;;;25.75;9.32;;;;;;;;;;5037641;28;20049;-88
2023/09/15 07:07:43;;;;;;;32.70;9.35;;;;;;;;;;5029063;28;20416;-88
2023/09/15 07:10:10;;;;;;;21.80;8.98;;;;;;;;;;5037048;28;20110;-88
2023/09/15 07:12:38;;;;;;;17.23;7.18;;;;;;;;;;5035782;28;20504;-87
2023/09/15 07:15:05;;;;;;;13.68;7.30;;;;;;;;;;5054066;28;20057;-88
2023/09/15 07:17:33;;;;;;;12.82;7.65;;;;;;;;;;5054335;28;20044;-87
2023/09/15 07:20:00;;;;;;;26.25;8.48;;;;;;;;;;5036654;28;20132;-88
2023/09/15 07:22:28;;;;;;;33.65;9.77;;;;;;;;;;5037268;28;20063;-88
2023/09/15 07:24:55;;;;;;;19.10;8.23;;;;;;;;;;5070173;28;20042;-88
2023/09/15 07:27:23;;;;;;;21.70;8.52;;;;;;;;;;5036942;28;20081;-87
2023/09/15 07:29:51;;;;;;;31.30;9.70;;;;;;;;;;5036350;28;20102;-87
2023/09/15 07:32:18;;;;;;;13.75;7.50;;;;;;;;;;5036570;28;20044;-89
2023/09/15 07:34:46;;;;;;;16.73;7.88;;;;;;;;;;5036670;28;20056;-89
2023/09/15 07:37:15;;;;;;;15.23;7.00;;;;;;;;;;5036643;28;20045;-89
2023/09/15 07:39:42;;;;;;;27.00;8.75;;;;;;;;;;5036367;28;20110;-89
2023/09/15 07:42:09;;;;;;;28.50;7.78;;;;;;;;;;5036451;28;20053;-88
2023/09/15 07:44:38;;;;;;;25.58;8.02;;;;;;;;;;5053725;28;20045;-88
2023/09/15 07:47:06;;;;;;;19.83;6.15;;;;;;;;;;5036481;28;20044;-89
2023/09/15 07:49:34;;;;;;;10.05;5.82;;;;;;;;;;5036405;28;20059;-91
2023/09/15 07:52:01;;;;;;;7.82;5.20;;;;;;;;;;5034754;28;20122;-88
2023/09/15 07:54:29;;;;;;;17.73;7.03;;;;;;;;;;5027980;28;20059;-88
2023/09/15 07:56:56;;;;;;;28.75;7.03;;;;;;;;;;5036385;28;20045;-88
2023/09/15 07:59:23;;;;;;;21.50;6.13;;;;;;;;;;5036051;28;20049;-87
2023/09/15 08:01:51;;;;;;;25.38;6.82;;;;;;;;;;5027676;28;20517;-88
2023/09/15 08:04:18;;;;;;;29.65;7.85;;;;;;;;;;5035758;28;20493;-89
2023/09/15 08:06:46;;;;;;;19.98;6.63;;;;;;;;;;5036234;28;20106;-88
2023/09/15 08:09:15;;;;;;;18.60;7.13;;;;;;;;;;5035750;28;20051;-88
2023/09/15 08:11:42;;;;;;;18.15;5.85;;;;;;;;;;5036100;28;20098;-88
2023/09/15 08:14:10;;;;;;;10.35;5.13;;;;;;;;;;5036117;28;20053;-86
2023/09/15 08:16:37;;;;;;;11.70;4.45;;;;;;;;;;5035870;28;20059;-86
2023/09/15 08:19:04;;;;;;;15.13;4.90;;;;;;;;;;5035880;28;20555;-86
2023/09/15 08:21:32;;;;;;;22.98;5.43;;;;;;;;;;5035950;28;20144;-87
2023/09/15 08:23:59;;;;;;;13.27;4.55;;;;;;;;;;5036027;28;20067;-87
2023/09/15 08:26:26;;;;;;;16.80;4.38;;;;;;;;;;5035873;28;20559;-87
2023/09/15 08:29:11;;;;;;;9.83;3.50;;;;;;;;;;5037569;28;20505;-86
2023/09/15 08:31:39;;;;;;;9.50;4.10;;;;;;;;;;5035904;28;20048;-86
2023/09/15 08:34:07;;;;;;;13.23;3.67;;;;;;;;;;5035687;28;20049;-87
2023/09/15 08:36:34;;;;;;;9.10;3.20;;;;;;;;;;5036190;28;20041;-88
2023/09/15 08:39:02;;;;;;;9.60;3.60;;;;;;;;;;5035978;28;20159;-87
2023/09/15 08:41:37;;;;;;;10.00;3.65;;;;;;;;;;5051180;28;20101;-87
2023/09/15 08:44:04;;;;;;;5.80;3.25;;;;;;;;;;5037527;28;20559;-86
2023/09/15 08:46:32;;;;;;;4.47;2.60;;;;;;;;;;5035740;28;20076;-86
2023/09/15 08:49:01;;;;;;;4.00;2.67;;;;;;;;;;5034951;28;20049;-87
2023/09/15 08:51:30;;;;;;;4.80;2.50;;;;;;;;;;5035472;28;20087;-87
2023/09/15 08:53:59;;;;;;;7.45;2.67;;;;;;;;;;5035750;28;20056;-87
2023/09/15 08:56:26;;;;;;;4.50;2.33;;;;;;;;;;5035550;28;20049;-86
2023/09/15 08:58:54;;;;;;;4.22;2.40;;;;;;;;;;5053166;28;20397;-88
2023/09/15 09:01:21;;;;;;;16.60;3.38;;;;;;;;;;5035326;28;20569;-86
2023/09/15 09:03:49;;;;;;;3.83;1.80;;;;;;;;;;5037911;28;20049;-88
2023/09/15 09:06:17;;;;;;;3.25;1.80;;;;;;;;;;5039434;28;20111;-86
2023/09/15 09:08:46;;;;;;;2.65;2.00;;;;;;;;;;5031142;28;20114;-85
2023/09/15 09:11:14;;;;;;;1.90;1.73;;;;;;;;;;5039262;28;20045;-87
2023/09/15 09:13:42;;;;;;;2.83;1.90;;;;;;;;;;5039085;28;20049;-87
2023/09/15 09:16:13;;;;;;;5.00;2.10;;;;;;;;;;5039418;28;20044;-86
2023/09/15 09:18:41;;;;;;;2.08;1.90;;;;;;;;;;5039287;28;20537;-87
2023/09/15 09:21:08;;;;;;;3.63;1.80;;;;;;;;;;5038944;28;20057;-86
2023/09/15 09:23:36;;;;;;;2.45;2.00;;;;;;;;;;5039379;28;20052;-89
2023/09/15 09:26:10;;;;;;;2.05;1.85;;;;;;;;;;5039042;28;20049;-87
2023/09/15 09:28:39;;;;;;;2.00;1.90;;;;;;;;;;5038862;28;20045;-87
2023/09/15 09:31:06;;;;;;;2.45;2.17;;;;;;;;;;5056462;28;20547;-86
2023/09/15 09:33:33;;;;;;;3.05;1.88;;;;;;;;;;5056426;28;20125;-88
2023/09/15 09:36:09;;;;;;;1.83;1.73;;;;;;;;;;5038629;28;20166;-86
2023/09/15 09:38:36;;;;;;;1.95;1.85;;;;;;;;;;5035241;28;20563;-87
2023/09/15 09:41:06;;;;;;;1.98;1.88;;;;;;;;;;5036164;28;20136;-86
2023/09/15 09:43:34;;;;;;;2.67;2.00;;;;;;;;;;5036450;28;20480;-86
2023/09/15 09:46:03;;;;;;;2.78;1.83;;;;;;;;;;5035928;28;20077;-86
2023/09/15 09:48:32;;;;;;;2.08;1.95;;;;;;;;;;5035941;28;20056;-87
2023/09/15 09:51:00;;;;;;;1.80;1.70;;;;;;;;;;5036245;28;20050;-86
2023/09/15 09:53:29;;;;;;;2.38;2.20;;;;;;;;;;5036036;28;20081;-86
2023/09/15 09:55:57;;;;;;;2.17;2.08;;;;;;;;;;5035138;28;20049;-87
2023/09/15 09:58:24;;;;;;;3.15;2.65;;;;;;;;;;5044677;28;20029;-87
2023/09/15 10:00:52;;;;;;;2.33;2.03;;;;;;;;;;5044221;28;20456;-86
2023/09/15 10:03:21;;;;;;;2.17;2.08;;;;;;;;;;5034955;28;20107;-86
2023/09/15 10:05:49;;;;;;;2.13;2.00;;;;;;;;;;5035059;28;20072;-86
2023/09/15 10:08:16;;;;;;;1.98;1.80;;;;;;;;;;5034792;28;20486;-87
2023/09/15 10:10:44;;;;;;;3.30;2.00;;;;;;;;;;5027958;28;20421;-88
2023/09/15 10:13:12;;;;;;;3.95;2.10;;;;;;;;;;5034706;28;20478;-87
2023/09/15 10:15:43;;;;;;;2.42;2.22;;;;;;;;;;5034605;28;20120;-88
2023/09/15 10:18:15;;;;;;;3.55;2.47;;;;;;;;;;5034924;28;20053;-87
2023/09/15 10:20:43;;;;;;;2.88;2.35;;;;;;;;;;5034777;28;20375;-88
2023/09/15 10:23:15;;;;;;;2.08;1.88;;;;;;;;;;5034774;28;20449;-87
2023/09/15 10:25:45;;;;;;;3.95;1.85;;;;;;;;;;5034573;28;20054;-88
2023/09/15 10:28:13;;;;;;;2.60;2.08;;;;;;;;;;5034657;28;20072;-88
2023/09/15 10:31:00;;;;;;;2.78;2.33;;;;;;;;;;5028803;28;20049;-87
2023/09/15 10:33:28;;;;;;;5.22;2.30;;;;;;;;;;5034125;28;20046;-86
2023/09/15 10:36:05;;;;;;;2.88;2.08;;;;;;;;;;5034028;28;20056;-86
2023/09/15 10:38:34;;;;;;;2.40;2.20;;;;;;;;;;5047165;28;20110;-88
2023/09/15 10:41:05;;;;;;;4.28;2.30;;;;;;;;;;5025954;28;20076;-87
2023/09/15 10:43:33;;;;;;;3.70;2.47;;;;;;;;;;5033540;28;20053;-87
2023/09/15 10:46:04;;;;;;;6.35;1.83;;;;;;;;;;5034079;28;20099;-87
2023/09/15 10:48:46;;;;;;;5.60;2.65;;;;;;;;;;5034306;28;20049;-88
2023/09/15 10:51:19;;;;;;;4.93;2.72;;;;;;;;;;5033703;28;20428;-87
2023/09/15 10:53:48;;;;;;;2.42;2.22;;;;;;;;;;5027463;28;20045;-90
2023/09/15 10:56:16;;;;;;;2.28;1.95;;;;;;;;;;5034903;28;20134;-88
2023/09/15 10:58:46;;;;;;;4.07;1.90;;;;;;;;;;5035319;28;20123;-87
2023/09/15 11:01:15;;;;;;;1.95;1.80;;;;;;;;;;5033905;28;20429;-86
2023/09/15 11:03:43;;;;;;;2.55;1.85;;;;;;;;;;5034418;28;20085;-87
2023/09/15 11:06:11;;;;;;;2.10;2.00;;;;;;;;;;5033953;28;20052;-88
2023/09/15 11:08:39;;;;;;;1.95;1.85;;;;;;;;;;5034962;28;20068;-87
2023/09/15 11:11:10;;;;;;;1.98;1.85;;;;;;;;;;5035089;28;20045;-87
2023/09/15 11:13:38;;;;;;;1.88;1.77;;;;;;;;;;5033800;28;20049;-88
2023/09/15 11:16:06;;;;;;;2.30;2.20;;;;;;;;;;5031760;28;20053;-87
2023/09/15 11:18:34;;;;;;;5.38;3.00;;;;;;;;;;5039700;28;20052;-87
2023/09/15 11:21:02;;;;;;;2.75;2.55;;;;;;;;;;5033460;28;20109;-87
2023/09/15 11:23:30;;;;;;;4.30;2.17;;;;;;;;;;5033462;28;20092;-87
2023/09/15 11:26:01;;;;;;;4.30;2.30;;;;;;;;;;5032654;28;20115;-87
2023/09/15 11:28:36;;;;;;;2.30;2.10;;;;;;;;;;5033562;28;20409;-87
2023/09/15 11:31:07;;;;;;;1.75;1.65;;;;;;;;;;5033048;28;20049;-87
2023/09/15 11:33:37;;;;;;;5.63;1.80;;;;;;;;;;5032925;28;20071;-88
2023/09/15 11:36:05;;;;;;;3.08;2.28;;;;;;;;;;5033200;28;20558;-87
2023/09/15 11:38:33;;;;;;;2.10;1.90;;;;;;;;;;5033112;28;20057;-87
2023/09/15 11:41:00;;;;;;;2.40;2.30;;;;;;;;;;5033989;28;20041;-86
2023/09/15 11:43:28;;;;;;;3.00;1.80;;;;;;;;;;5033100;28;20049;-88
2023/09/15 11:45:55;;;;;;;1.83;1.73;;;;;;;;;;5033159;28;20491;-87
2023/09/15 11:48:23;;;;;;;2.00;1.77;;;;;;;;;;5033279;28;20401;-88
2023/09/15 11:50:53;;;;;;;4.35;2.03;;;;;;;;;;5033105;28;20137;-88
2023/09/15 11:53:25;;;;;;;2.15;2.05;;;;;;;;;;5034102;28;20482;-88
2023/09/15 11:55:53;;;;;;;4.00;1.83;;;;;;;;;;5032933;28;20049;-87
2023/09/15 11:58:20;;;;;;;2.75;1.98;;;;;;;;;;5033082;28;20050;-88
2023/09/15 12:00:48;;;;;;;2.15;1.95;;;;;;;;;;5032510;28;20159;-88
2023/09/15 12:03:18;;;;;;;2.05;1.95;;;;;;;;;;5032479;28;20119;-87
2023/09/15 12:05:45;;;;;;;1.98;1.85;;;;;;;;;;5024857;28;20057;-89
2023/09/15 12:08:13;;;;;;;2.15;1.85;;;;;;;;;;5033351;28;20049;-87
2023/09/15 12:10:42;;;;;;;3.95;1.83;;;;;;;;;;5032496;28;20064;-87
2023/09/15 12:13:14;;;;;;;2.20;2.03;;;;;;;;;;5032604;28;20518;-88
2023/09/15 12:15:41;;;;;;;1.83;1.73;;;;;;;;;;5032158;28;20084;-87
2023/09/15 12:18:11;;;;;;;2.10;2.00;;;;;;;;;;5032813;28;20052;-88
2023/09/15 12:20:39;;;;;;;2.85;2.00;;;;;;;;;;5032806;28;20055;-89
2023/09/15 12:23:12;;;;;;;2.15;2.00;;;;;;;;;;5032802;28;20096;-89
2023/09/15 12:25:40;;;;;;;1.75;1.65;;;;;;;;;;5032195;28;20394;-87
2023/09/15 12:28:08;;;;;;;2.30;2.10;;;;;;;;;;5032735;28;20053;-88
2023/09/15 12:30:36;;;;;;;2.17;1.85;;;;;;;;;;5036561;28;20115;-88
2023/09/15 12:33:07;;;;;;;2.25;1.88;;;;;;;;;;5033242;28;20482;-88
2023/09/15 12:35:40;;;;;;;1.70;1.60;;;;;;;;;;5049215;28;20109;-87
2023/09/15 12:38:11;;;;;;;2.00;1.90;;;;;;;;;;5037360;28;20054;-88
2023/09/15 12:40:38;;;;;;;2.00;1.90;;;;;;;;;;5039044;28;20049;-88
2023/09/15 12:43:06;;;;;;;1.70;1.60;;;;;;;;;;5040088;28;20054;-90
2023/09/15 12:45:33;;;;;;;2.70;1.70;;;;;;;;;;5039793;28;20493;-88
2023/09/15 12:48:01;;;;;;;1.92;1.83;;;;;;;;;;5038992;28;20509;-89
2023/09/15 12:50:28;;;;;;;2.00;1.50;;;;;;;;;;5039787;28;20132;-88
2023/09/15 12:52:55;;;;;;;1.40;1.40;;;;;;;;;;5038903;28;20080;-88
2023/09/15 12:55:23;;;;;;;1.80;1.70;;;;;;;;;;5039071;28;20050;-88
2023/09/15 12:57:50;;;;;;;1.70;1.60;;;;;;;;;;5039040;28;20493;-89
2023/09/15 13:00:18;;;;;;;2.15;1.80;;;;;;;;;;5039303;28;20111;-88
2023/09/15 13:02:45;;;;;;;3.03;1.60;;;;;;;;;;5031713;28;20082;-89
2023/09/15 13:05:13;;;;;;;7.68;2.03;;;;;;;;;;5039559;28;20045;-88
2023/09/15 13:07:42;;;;;;;2.75;1.58;;;;;;;;;;5039198;28;20057;-88
2023/09/15 13:10:10;;;;;;;2.20;1.55;;;;;;;;;;5038771;28;20053;-85
2023/09/15 13:12:38;;;;;;;23.83;3.95;;;;;;;;;;5038355;28;20041;-88
2023/09/15 13:15:07;;;;;;;20.45;3.53;;;;;;;;;;5038716;28;20061;-88
2023/09/15 13:17:35;;;;;;;7.72;2.33;;;;;;;;;;5038966;28;20053;-88
2023/09/15 13:20:08;;;;;;;1.83;1.30;;;;;;;;;;5039251;28;20057;-88
2023/09/15 13:22:38;;;;;;;10.80;2.30;;;;;;;;;;5039070;28;20478;-88
2023/09/15 13:25:06;;;;;;;13.45;2.70;;;;;;;;;;5038970;28;20046;-88
2023/09/15 13:27:36;;;;;;;5.95;1.50;;;;;;;;;;5039249;28;20103;-89
2023/09/15 13:30:04;;;;;;;2.00;1.80;;;;;;;;;;5038884;28;20049;-89
2023/09/15 13:32:31;;;;;;;1.67;1.58;;;;;;;;;;5039539;28;20132;-88
2023/09/15 13:34:58;;;;;;;1.67;1.38;;;;;;;;;;5038852;28;20489;-88
2023/09/15 13:37:26;;;;;;;3.05;1.60;;;;;;;;;;5038475;28;20046;-90
2023/09/15 13:39:53;;;;;;;8.18;1.85;;;;;;;;;;5038505;28;20085;-87
2023/09/15 13:42:31;;;;;;;8.30;2.00;;;;;;;;;;5038604;28;20053;-89
2023/09/15 13:44:59;;;;;;;5.57;1.95;;;;;;;;;;5038755;28;20060;-86
2023/09/15 13:47:34;;;;;;;12.95;2.47;;;;;;;;;;5038690;28;20099;-88
2023/09/15 13:50:02;;;;;;;1.40;1.40;;;;;;;;;;5034780;28;20394;-88
2023/09/15 13:52:30;;;;;;;6.63;2.05;;;;;;;;;;5042698;28;20069;-88
2023/09/15 13:54:58;;;;;;;5.50;1.70;;;;;;;;;;5046970;28;20053;-90
2023/09/15 13:57:25;;;;;;;1.70;1.60;;;;;;;;;;5035859;28;20478;-89
2023/09/15 13:59:55;;;;;;;3.83;1.50;;;;;;;;;;5035846;28;20055;-89
2023/09/15 14:02:26;;;;;;;1.77;1.65;;;;;;;;;;5035094;28;20060;-87
2023/09/15 14:04:53;;;;;;;1.52;1.40;;;;;;;;;;5035387;28;20081;-87
2023/09/15 14:07:24;;;;;;;1.55;1.45;;;;;;;;;;5035673;28;20046;-88
2023/09/15 14:09:52;;;;;;;1.60;1.50;;;;;;;;;;5035088;28;20056;-88
2023/09/15 14:12:19;;;;;;;1.17;1.17;;;;;;;;;;5035044;28;20111;-89
2023/09/15 14:14:46;;;;;;;1.60;1.50;;;;;;;;;;5034973;28;20049;-88
2023/09/15 14:17:14;;;;;;;1.63;1.52;;;;;;;;;;5035123;28;20448;-89
2023/09/15 14:19:41;;;;;;;2.40;1.55;;;;;;;;;;5035915;28;20050;-88
2023/09/15 14:22:12;;;;;;;3.50;1.30;;;;;;;;;;5034926;28;20057;-88
2023/09/15 14:24:42;;;;;;;5.72;2.13;;;;;;;;;;5034826;28;20049;-88
2023/09/15 14:27:09;;;;;;;2.20;1.48;;;;;;;;;;5034732;28;20057;-89
2023/09/15 14:29:37;;;;;;;1.17;1.17;;;;;;;;;;5034766;28;20059;-88
2023/09/15 14:32:05;;;;;;;1.38;1.38;;;;;;;;;;5034970;28;20057;-88
2023/09/15 14:34:32;;;;;;;1.90;1.60;;;;;;;;;;5034658;28;20077;-88
2023/09/15 14:37:00;;;;;;;3.15;2.70;;;;;;;;;;5034684;28;20432;-88